createdAt,value
2024-02-13T00:01:01.207Z,99550.56
2024-02-13T00:04:06.363Z,99551.69
2024-02-13T00:07:09.023Z,99559.75
2024-02-13T00:10:12.699Z,99561.50
2024-02-13T00:13:16.090Z,99563.78
2024-02-13T00:16:19.585Z,99560.38
2024-02-13T00:19:22.570Z,99556.19
2024-02-13T00:22:25.230Z,99562.34
2024-02-13T00:25:29.740Z,99564.91
2024-02-13T00:28:32.428Z,99567.19
2024-02-13T00:31:36.132Z,99575.75
2024-02-13T00:34:39.103Z,99569.94
2024-02-13T00:37:42.301Z,99580.91
2024-02-13T00:40:45.048Z,99582.03
2024-02-13T00:43:47.668Z,99587.03
2024-02-13T00:46:51.605Z,99589.94
2024-02-13T00:49:55.579Z,99598.47
2024-02-13T00:53:00.444Z,99598.47
2024-02-13T00:56:03.240Z,99606.19
2024-02-13T00:59:05.883Z,99604.75
2024-02-13T01:02:09.544Z,99604.75
2024-02-13T01:05:12.844Z,99608.63
2024-02-13T01:08:16.873Z,99617.03
2024-02-13T01:11:19.708Z,99611.38
2024-02-13T01:14:22.595Z,99610.91
2024-02-13T01:17:25.315Z,99614.13
2024-02-13T01:20:28.096Z,99607.34
2024-02-13T01:23:30.765Z,99601.53
2024-02-13T01:26:33.506Z,99607.50
2024-02-13T01:29:37.083Z,99611.53
2024-02-13T01:32:41.828Z,99633.31
2024-02-13T01:35:45.285Z,99618.59
2024-02-13T01:38:48.124Z,99605.69
2024-02-13T01:41:51.738Z,99617.78
2024-02-13T01:44:55.177Z,99615.00
2024-02-13T01:48:00.282Z,99614.84
2024-02-13T01:51:04.037Z,99626.59
2024-02-13T01:54:14.403Z,99615.00
2024-02-13T01:57:17.224Z,99605.31
2024-02-13T02:00:20.298Z,99604.66
2024-02-13T02:03:23.720Z,99607.09
2024-02-13T02:06:27.177Z,99615.47
2024-02-13T02:09:29.926Z,99613.69
2024-02-13T02:12:32.853Z,99606.44
2024-02-13T02:15:36.362Z,99611.59
2024-02-13T02:18:40.615Z,99615.28
2024-02-13T02:21:43.557Z,99618.84
2024-02-13T02:24:46.195Z,99620.31
2024-02-13T02:27:49.621Z,99623.19
2024-02-13T02:30:52.359Z,99625.78
2024-02-13T02:33:57.252Z,99622.41
2024-02-13T02:37:00.044Z,99637.75
2024-02-13T02:40:03.043Z,99646.63
2024-02-13T02:43:05.699Z,99646.47
2024-02-13T02:46:08.543Z,99650.38
2024-02-13T02:49:11.242Z,99636.69
2024-02-13T02:52:14.439Z,99652.00
2024-02-13T02:55:19.446Z,99652.66
2024-02-13T02:58:22.312Z,99660.38
2024-02-13T03:01:25.979Z,99662.16
2024-02-13T03:04:29.023Z,99665.22
2024-02-13T03:07:33.300Z,99678.31
2024-02-13T03:10:36.375Z,99686.22
2024-02-13T03:13:39.014Z,99679.59
2024-02-13T03:16:42.252Z,99674.59
2024-02-13T03:19:45.113Z,99687.19
2024-02-13T03:22:47.710Z,99689.63
2024-02-13T03:25:50.382Z,99683.00
2024-02-13T03:28:53.024Z,99695.75
2024-02-13T03:31:55.888Z,99699.78
2024-02-13T03:34:58.590Z,99705.91
2024-02-13T03:38:01.242Z,99704.94
2024-02-13T03:41:03.965Z,99710.72
2024-02-13T03:44:09.132Z,99719.44
2024-02-13T03:47:11.882Z,99709.94
2024-02-13T03:50:14.709Z,99710.41
2024-02-13T03:53:17.496Z,99717.66
2024-02-13T03:56:20.182Z,99719.59
2024-02-13T03:59:24.683Z,99728.16
2024-02-13T04:02:27.861Z,99730.06
2024-02-13T04:05:31.458Z,99737.63
2024-02-13T04:08:34.549Z,99751.50
2024-02-13T04:11:37.289Z,99748.09
2024-02-13T04:14:40.014Z,99742.94
2024-02-13T04:17:43.265Z,99753.38
2024-02-13T04:20:46.589Z,99756.63
2024-02-13T04:23:50.775Z,99753.53
2024-02-13T04:26:53.519Z,99748.38
2024-02-13T04:29:57.482Z,99757.91
2024-02-13T04:33:00.337Z,99756.16
2024-02-13T04:36:03.874Z,99762.41
2024-02-13T04:39:09.448Z,99768.22
2024-02-13T04:42:12.526Z,99764.66
2024-02-13T04:45:15.264Z,99772.88
2024-02-13T04:48:18.484Z,99772.88
2024-02-13T04:51:21.302Z,99773.97
2024-02-13T04:54:23.944Z,99778.03
2024-02-13T04:57:26.933Z,99781.06
2024-02-13T05:00:31.379Z,99770.88
2024-02-13T05:03:43.181Z,99777.00
2024-02-13T05:07:04.580Z,99772.13
2024-02-13T05:10:07.616Z,99773.75
2024-02-13T05:13:10.971Z,99779.34
2024-02-13T05:16:13.618Z,99792.09
2024-02-13T05:19:16.773Z,99790.78
2024-02-13T05:22:20.883Z,99786.75
2024-02-13T05:25:23.504Z,99792.38
2024-02-13T05:28:26.135Z,99802.88
2024-02-13T05:31:28.806Z,99799.63
2024-02-13T05:34:31.586Z,99815.09
2024-02-13T05:37:34.530Z,99782.91
2024-02-13T05:40:39.747Z,99814.94
2024-02-13T05:43:43.005Z,99813.31
2024-02-13T05:46:45.744Z,99819.94
2024-02-13T05:49:49.500Z,99837.69
2024-02-13T05:52:54.090Z,99839.16
2024-02-13T05:55:56.798Z,99844.50
2024-02-13T05:59:02.073Z,99856.50
2024-02-13T06:02:05.147Z,99837.75
2024-02-13T06:05:11.230Z,99860.44
2024-02-13T06:08:14.021Z,99861.25
2024-02-13T06:11:16.904Z,99859.84
2024-02-13T06:14:20.325Z,99866.16
2024-02-13T06:17:25.916Z,99875.19
2024-02-13T06:20:28.646Z,99882.47
2024-02-13T06:23:34.362Z,99888.47
2024-02-13T06:26:38.857Z,99896.53
2024-02-13T06:29:44.890Z,99895.13
2024-02-13T06:32:47.987Z,99899.81
2024-02-13T06:35:50.753Z,99908.66
2024-02-13T06:38:56.244Z,99901.06
2024-02-13T06:42:00.014Z,99918.16
2024-02-13T06:45:04.083Z,99915.91
2024-02-13T06:48:19.355Z,99913.50
2024-02-13T06:51:22.222Z,99924.47
2024-02-13T06:54:25.876Z,99937.22
2024-02-13T06:57:28.614Z,99938.53
2024-02-13T07:00:32.976Z,99945.31
2024-02-13T07:03:36.117Z,99940.00
2024-02-13T07:06:49.243Z,99948.56
2024-02-13T07:10:02.504Z,99949.88
2024-02-13T07:13:05.344Z,99963.88
2024-02-13T07:16:08.442Z,99962.91
2024-02-13T07:19:11.654Z,99958.41
2024-02-13T07:22:15.589Z,99972.13
2024-02-13T07:25:18.323Z,99951.16
2024-02-13T07:28:21.015Z,99979.75
2024-02-13T07:31:24.793Z,99983.31
2024-02-13T07:34:28.424Z,99988.69
2024-02-13T07:37:34.090Z,99992.25
2024-02-13T07:40:36.705Z,99999.53
2024-02-13T07:43:39.500Z,100008.41
2024-02-13T07:46:42.623Z,99995.47
2024-02-13T07:49:45.228Z,100010.84
2024-02-13T07:52:49.238Z,100007.94
2024-02-13T07:55:51.878Z,100016.84
2024-02-13T07:58:54.840Z,100017.47
2024-02-13T08:01:58.831Z,100029.47
2024-02-13T08:05:01.509Z,100025.09
2024-02-13T08:08:07.232Z,100023.84
2024-02-13T08:11:11.430Z,100028.03
2024-02-13T08:14:14.135Z,100024.34
2024-02-13T08:17:16.945Z,100023.88
2024-02-13T08:20:19.823Z,100034.22
2024-02-13T08:23:22.811Z,100038.28
2024-02-13T08:26:25.509Z,100046.06
2024-02-13T08:29:30.569Z,100035.72
2024-02-13T08:32:39.366Z,100046.91
2024-02-13T08:35:43.656Z,100039.19
2024-02-13T08:38:46.599Z,100041.28
2024-02-13T08:41:49.456Z,100050.19
2024-02-13T08:44:53.704Z,100042.75
2024-02-13T08:48:02.332Z,100038.53
2024-02-13T08:51:06.443Z,100037.72
2024-02-13T08:54:13.269Z,100057.31
2024-02-13T08:57:15.919Z,100057.78
2024-02-13T09:00:20.386Z,100063.13
2024-02-13T09:03:23.846Z,100063.78
2024-02-13T09:06:26.637Z,100070.75
2024-02-13T09:09:34.268Z,100063.28
2024-02-13T09:12:37.147Z,100070.91
2024-02-13T09:15:39.853Z,100084.81
2024-02-13T09:18:44.166Z,100094.03
2024-02-13T09:21:47.091Z,100103.06
2024-02-13T09:24:52.870Z,100100.63
2024-02-13T09:27:59.865Z,100091.25
2024-02-13T09:31:02.982Z,100108.72
2024-02-13T09:34:08.209Z,100091.06
2024-02-13T09:37:11.240Z,100112.72
2024-02-13T09:40:14.917Z,100108.50
2024-02-13T09:43:19.525Z,100106.97
2024-02-13T09:46:25.974Z,100122.50
2024-02-13T09:49:32.403Z,100122.81
2024-02-13T09:52:37.343Z,100123.06
2024-02-13T09:55:43.367Z,100128.03
2024-02-13T09:58:48.628Z,100133.44
2024-02-13T10:01:51.552Z,100126.44
2024-02-13T10:04:54.872Z,100131.63
2024-02-13T10:07:57.527Z,100120.16
2024-02-13T10:11:10.375Z,100130.34
2024-02-13T10:14:23.228Z,100120.28
2024-02-13T10:17:26.679Z,100119.28
2024-02-13T10:20:29.439Z,100128.38
2024-02-13T10:23:34.763Z,100117.47
2024-02-13T10:26:38.728Z,100110.78
2024-02-13T10:29:44.660Z,100101.13
2024-02-13T10:32:47.738Z,100098.69
2024-02-13T10:35:55.368Z,100120.72
2024-02-13T10:39:01.912Z,100084.06
2024-02-13T10:42:11.121Z,100112.34
2024-02-13T10:45:15.839Z,100105.38
2024-02-13T10:48:39.814Z,100104.16
2024-02-13T10:51:43.986Z,100097.81
2024-02-13T10:54:49.582Z,100094.88
2024-02-13T10:57:53.520Z,100084.31
2024-02-13T11:00:56.904Z,100078.31
2024-02-13T11:04:00.222Z,100089.53
2024-02-13T11:07:04.658Z,100080.47
2024-02-13T11:10:13.556Z,100101.88
2024-02-13T11:13:20.314Z,100093.47
2024-02-13T11:16:25.147Z,100115.16
2024-02-13T11:19:45.575Z,100107.31
2024-02-13T11:22:52.948Z,100111.47
2024-02-13T11:26:00.433Z,100113.13
2024-02-13T11:29:14.384Z,100099.09
2024-02-13T11:32:26.750Z,100110.44
2024-02-13T11:35:32.324Z,100112.34
2024-02-13T11:38:35.759Z,100114.41
2024-02-13T11:41:39.647Z,100153.00
2024-02-13T11:44:43.251Z,100114.25
2024-02-13T11:47:50.796Z,100100.78
2024-02-13T11:50:56.655Z,100118.56
2024-02-13T11:54:00.491Z,100110.47
2024-02-13T11:57:04.574Z,100121.41
2024-02-13T12:00:20.209Z,100123.47
2024-02-13T12:03:23.491Z,100123.03
2024-02-13T12:06:26.390Z,100130.47
2024-02-13T12:09:29.909Z,100116.75
2024-02-13T12:12:36.037Z,100116.41
2024-02-13T12:15:39.897Z,100127.47
2024-02-13T12:18:46.276Z,100141.56
2024-02-13T12:21:49.941Z,100129.41
2024-02-13T12:24:52.732Z,100126.19
2024-02-13T12:28:01.884Z,100124.41
2024-02-13T12:31:06.692Z,100122.16
2024-02-13T12:34:09.746Z,100117.22
2024-02-13T12:37:20.097Z,100130.16
2024-02-13T12:40:27.794Z,100144.31
2024-02-13T12:43:30.940Z,100125.88
2024-02-13T12:46:38.563Z,100117.72
2024-02-13T12:49:45.120Z,100120.13
2024-02-13T12:52:48.011Z,100120.47
2024-02-13T12:55:50.934Z,100119.75
2024-02-13T12:58:53.977Z,100116.16
2024-02-13T13:02:00.626Z,100128.63
2024-02-13T13:05:04.166Z,100133.47
2024-02-13T13:08:09.854Z,100143.00
2024-02-13T13:11:13.332Z,100141.69
2024-02-13T13:14:19.834Z,100147.41
2024-02-13T13:17:24.279Z,100176.94
2024-02-13T13:20:29.462Z,100152.41
2024-02-13T13:23:32.430Z,100179.41
2024-02-13T13:26:36.320Z,100172.63
2024-02-13T13:29:42.770Z,100191.50
2024-02-13T13:32:46.138Z,100175.63
2024-02-13T13:35:49.013Z,100193.88
2024-02-13T13:38:51.787Z,100197.47
2024-02-13T13:41:55.729Z,100205.44
2024-02-13T13:44:59.401Z,100196.66
2024-02-13T13:48:16.075Z,100217.09
2024-02-13T13:51:19.826Z,100216.59
2024-02-13T13:54:23.348Z,100222.75
2024-02-13T13:57:25.980Z,100235.09
2024-02-13T14:00:31.276Z,100218.84
2024-02-13T14:03:34.823Z,100241.41
2024-02-13T14:06:37.640Z,100235.03
2024-02-13T14:09:40.392Z,100233.25
2024-02-13T14:12:45.362Z,100263.44
2024-02-13T14:15:49.519Z,100236.06
2024-02-13T14:18:52.311Z,100252.63
2024-02-13T14:21:55.111Z,100255.69
2024-02-13T14:24:57.869Z,100245.47
2024-02-13T14:28:00.748Z,100247.25
2024-02-13T14:31:03.545Z,100256.81
2024-02-13T14:34:07.183Z,100266.88
2024-02-13T14:37:11.311Z,100261.84
2024-02-13T14:40:15.260Z,100270.16
2024-02-13T14:43:18.029Z,100260.56
2024-02-13T14:46:20.939Z,100266.75
2024-02-13T14:49:23.622Z,100266.91
2024-02-13T14:52:27.019Z,100270.81
2024-02-13T14:55:29.639Z,100272.25
2024-02-13T14:58:38.845Z,100262.88
2024-02-13T15:01:44.088Z,100268.53
2024-02-13T15:04:49.328Z,100280.84
2024-02-13T15:07:55.017Z,100274.69
2024-02-13T15:10:57.678Z,100271.13
2024-02-13T15:14:01.617Z,100273.22
2024-02-13T15:17:04.436Z,100282.63
2024-02-13T15:20:08.750Z,100284.91
2024-02-13T15:23:14.273Z,100302.25
2024-02-13T15:26:17.116Z,100306.13
2024-02-13T15:29:20.965Z,100305.97
2024-02-13T15:32:24.031Z,100306.91
2024-02-13T15:35:40.579Z,100330.84
2024-02-13T15:39:01.508Z,100314.50
2024-02-13T15:42:23.085Z,100317.22
2024-02-13T15:45:44.477Z,100321.53
2024-02-13T15:48:48.324Z,100335.09
2024-02-13T15:51:52.345Z,100329.44
2024-02-13T15:54:56.079Z,100347.19
2024-02-13T15:57:59.511Z,100347.41
2024-02-13T16:01:03.000Z,100355.59
2024-02-13T16:04:05.854Z,100361.81
2024-02-13T16:07:11.764Z,100362.03
2024-02-13T16:10:16.059Z,100373.31
2024-02-13T16:13:20.136Z,100380.16
2024-02-13T16:16:23.744Z,100381.88
2024-02-13T16:19:29.883Z,100389.56
2024-02-13T16:22:35.790Z,100399.00
2024-02-13T16:25:38.630Z,100397.03
2024-02-13T16:28:41.431Z,100393.63
2024-02-13T16:31:44.189Z,100414.38
2024-02-13T16:34:47.039Z,100413.47
2024-02-13T16:37:49.844Z,100424.91
2024-02-13T16:40:52.512Z,100439.34
2024-02-13T16:43:55.212Z,100429.91
2024-02-13T16:47:00.291Z,100431.13
2024-02-13T16:50:03.042Z,100447.75
2024-02-13T16:53:08.713Z,100437.19
2024-02-13T16:56:11.997Z,100452.09
2024-02-13T16:59:15.911Z,100451.41
2024-02-13T17:02:18.713Z,100459.47
2024-02-13T17:05:23.732Z,100459.22
2024-02-13T17:08:28.139Z,100464.81
2024-02-13T17:11:30.893Z,100470.50
2024-02-13T17:14:34.420Z,100491.72
2024-02-13T17:17:41.124Z,100485.03
2024-02-13T17:20:44.519Z,100480.47
2024-02-13T17:23:49.083Z,100485.66
2024-02-13T17:26:52.224Z,100493.81
2024-02-13T17:29:56.091Z,100495.72
2024-02-13T17:33:02.731Z,100499.28
2024-02-13T17:36:06.383Z,100501.16
2024-02-13T17:39:11.068Z,100504.31
2024-02-13T17:42:13.795Z,100496.69
2024-02-13T17:45:16.772Z,100505.66
2024-02-13T17:48:19.764Z,100518.19
2024-02-13T17:51:22.467Z,100516.25
2024-02-13T17:54:29.438Z,100518.97
2024-02-13T17:57:32.166Z,100520.59
2024-02-13T18:00:35.911Z,100521.69
2024-02-13T18:03:38.672Z,100529.97
2024-02-13T18:06:41.682Z,100532.00
2024-02-13T18:09:44.467Z,100528.63
2024-02-13T18:12:48.144Z,100532.81
2024-02-13T18:15:51.990Z,100532.94
2024-02-13T18:18:57.312Z,100545.59
2024-02-13T18:22:00.397Z,100543.28
2024-02-13T18:25:04.331Z,100544.63
2024-02-13T18:28:07.410Z,100545.59
2024-02-13T18:31:10.066Z,100546.00
2024-02-13T18:34:14.276Z,100547.22
2024-02-13T18:37:19.147Z,100551.69
2024-02-13T18:40:22.076Z,100554.69
2024-02-13T18:43:24.745Z,100540.84
2024-02-13T18:46:27.353Z,100561.63
2024-02-13T18:49:30.255Z,100556.75
2024-02-13T18:52:33.078Z,100560.50
2024-02-13T18:55:37.324Z,100563.50
2024-02-13T18:58:40.130Z,100562.16
2024-02-13T19:01:46.087Z,100571.66
2024-02-13T19:04:49.075Z,100556.84
2024-02-13T19:07:52.388Z,100569.44
2024-02-13T19:10:57.632Z,100570.78
2024-02-13T19:14:00.535Z,100572.47
2024-02-13T19:17:04.776Z,100573.81
2024-02-13T19:20:11.269Z,100568.94
2024-02-13T19:23:14.071Z,100574.09
2024-02-13T19:26:16.805Z,100577.63
2024-02-13T19:29:20.825Z,100579.38
2024-02-13T19:32:25.103Z,100590.78
2024-02-13T19:35:28.307Z,100592.25
2024-02-13T19:38:31.096Z,100597.25
2024-02-13T19:41:33.947Z,100598.47
2024-02-13T19:44:38.213Z,100599.00
2024-02-13T19:47:41.705Z,100601.03
2024-02-13T19:50:44.504Z,100603.72
2024-02-13T19:53:47.977Z,100604.25
2024-02-13T19:56:50.722Z,100609.13
2024-02-13T19:59:53.465Z,100610.44
2024-02-13T20:02:56.203Z,100609.00
2024-02-13T20:05:59.883Z,100605.91
2024-02-13T20:09:03.025Z,100597.50
2024-02-13T20:12:08.632Z,100608.38
2024-02-13T20:15:12.678Z,100608.06
2024-02-13T20:18:15.526Z,100612.00
2024-02-13T20:21:18.266Z,100602.66
2024-02-13T20:24:21.007Z,100608.06
2024-02-13T20:27:23.643Z,100615.81
2024-02-13T20:30:26.357Z,100621.09
2024-02-13T20:33:32.745Z,100622.88
2024-02-13T20:36:38.361Z,100620.81
2024-02-13T20:39:43.019Z,100625.84
2024-02-13T20:42:50.909Z,100626.13
2024-02-13T20:45:54.331Z,100634.13
2024-02-13T20:48:59.305Z,100635.47
2024-02-13T20:52:02.057Z,100642.91
2024-02-13T20:55:06.081Z,100637.59
2024-02-13T20:58:08.934Z,100656.94
2024-02-13T21:01:13.755Z,100650.72
2024-02-13T21:04:16.561Z,100650.22
2024-02-13T21:07:20.943Z,100660.41
2024-02-13T21:10:24.213Z,100662.06
2024-02-13T21:13:27.125Z,100662.31
2024-02-13T21:16:34.663Z,100667.78
2024-02-13T21:19:37.711Z,100663.56
2024-02-13T21:22:59.677Z,100658.28
2024-02-13T21:26:02.763Z,100669.78
2024-02-13T21:29:05.409Z,100683.00
2024-02-13T21:32:08.137Z,100669.97
2024-02-13T21:35:13.658Z,100669.97
2024-02-13T21:38:16.305Z,100681.34
2024-02-13T21:41:19.573Z,100676.03
2024-02-13T21:44:22.225Z,100672.25
2024-02-13T21:47:25.557Z,100683.38
2024-02-13T21:50:28.238Z,100683.47
2024-02-13T21:53:30.913Z,100694.16
2024-02-13T21:56:33.597Z,100683.88
2024-02-13T21:59:36.864Z,100690.91
2024-02-13T22:02:39.676Z,100701.69
2024-02-13T22:05:42.371Z,100705.19
2024-02-13T22:08:45.142Z,100700.44
2024-02-13T22:11:49.350Z,100700.56
2024-02-13T22:14:52.132Z,100716.03
2024-02-13T22:17:55.034Z,100717.72
2024-02-13T22:20:58.883Z,100727.72
2024-02-13T22:24:03.945Z,100715.09
2024-02-13T22:27:07.189Z,100733.94
2024-02-13T22:30:10.382Z,100732.41
2024-02-13T22:33:13.817Z,100724.94
2024-02-13T22:36:25.511Z,100734.56
2024-02-13T22:39:28.172Z,100732.09
2024-02-13T22:42:30.888Z,100743.59
2024-02-13T22:45:33.593Z,100743.72
2024-02-13T22:48:36.344Z,100749.94
2024-02-13T22:51:41.580Z,100751.84
2024-02-13T22:54:45.867Z,100754.06
2024-02-13T22:57:48.520Z,100755.41
2024-02-13T23:00:58.310Z,100750.72
2024-02-13T23:04:02.967Z,100751.09
2024-02-13T23:07:05.619Z,100751.59
2024-02-13T23:10:09.531Z,100757.44
2024-02-13T23:13:14.167Z,100761.13
2024-02-13T23:16:17.958Z,100755.53
2024-02-13T23:19:20.639Z,100767.84
2024-02-13T23:22:23.486Z,100768.34
2024-02-13T23:25:30.225Z,100762.72
2024-02-13T23:28:43.338Z,100759.00
2024-02-13T23:31:51.581Z,100758.06
2024-02-13T23:34:54.262Z,100766.84
2024-02-13T23:37:57.021Z,100769.41
2024-02-13T23:40:59.672Z,100763.31
2024-02-13T23:44:02.297Z,100766.94
2024-02-13T23:47:05.137Z,100772.47
2024-02-13T23:50:08.631Z,100774.56
2024-02-13T23:53:11.346Z,100781.13
2024-02-13T23:56:18.897Z,100785.34
2024-02-13T23:59:23.504Z,100786.66
